createdAt,value
2022-10-04T00:02:24.747Z,72.80
2022-10-04T00:05:26.859Z,72.92
2022-10-04T00:08:51.636Z,72.50
2022-10-04T00:11:54.655Z,72.50
2022-10-04T00:14:59.859Z,73.05
2022-10-04T00:18:07.680Z,73.05
2022-10-04T00:21:09.977Z,73.24
2022-10-04T00:24:23.334Z,72.84
2022-10-04T00:27:26.665Z,73.27
2022-10-04T00:30:37.422Z,73.19
2022-10-04T00:33:49.114Z,73.85
2022-10-04T00:36:55.360Z,73.68
2022-10-04T00:40:12.044Z,74.19
2022-10-04T00:43:41.029Z,73.72
2022-10-04T00:46:43.228Z,73.01
2022-10-04T00:49:45.252Z,72.09
2022-10-04T00:53:00.607Z,72.04
2022-10-04T00:56:04.175Z,72.59
2022-10-04T00:59:33.347Z,72.83
2022-10-04T01:02:43.933Z,72.38
2022-10-04T01:05:53.220Z,72.86
2022-10-04T01:09:00.487Z,72.00
2022-10-04T01:12:17.589Z,72.10
2022-10-04T01:15:49.137Z,72.67
2022-10-04T01:18:51.334Z,72.61
2022-10-04T01:22:05.434Z,72.59
2022-10-04T01:25:07.734Z,73.20
2022-10-04T01:28:09.863Z,74.11
2022-10-04T01:31:12.061Z,73.46
2022-10-04T01:34:19.346Z,73.47
2022-10-04T01:37:21.486Z,73.19
2022-10-04T01:40:23.759Z,73.00
2022-10-04T01:43:30.454Z,73.83
2022-10-04T01:46:36.409Z,72.34
2022-10-04T01:49:39.209Z,73.08
2022-10-04T01:53:08.650Z,73.30
2022-10-04T01:56:19.787Z,73.40
2022-10-04T01:59:34.339Z,74.44
2022-10-04T02:03:02.200Z,73.68
2022-10-04T02:06:06.144Z,74.41
2022-10-04T02:09:33.870Z,74.39
2022-10-04T02:12:35.972Z,73.92
2022-10-04T02:15:39.803Z,72.90
2022-10-04T02:18:43.641Z,72.53
2022-10-04T02:21:46.844Z,73.24
2022-10-04T02:24:49.023Z,72.19
2022-10-04T02:27:53.970Z,72.42
2022-10-04T02:31:14.888Z,72.11
2022-10-04T02:34:18.977Z,72.72
2022-10-04T02:37:23.680Z,73.13
2022-10-04T02:40:31.138Z,72.70
2022-10-04T02:43:48.417Z,73.57
2022-10-04T02:47:14.609Z,73.03
2022-10-04T02:50:24.726Z,73.33
2022-10-04T02:54:03.370Z,72.78
2022-10-04T02:57:05.910Z,73.58
2022-10-04T03:00:20.190Z,72.79
2022-10-04T03:03:28.602Z,72.87
2022-10-04T03:06:32.461Z,73.74
2022-10-04T03:09:35.367Z,73.79
2022-10-04T03:12:38.999Z,74.16
2022-10-04T03:15:41.133Z,75.00
2022-10-04T03:18:43.266Z,75.24
2022-10-04T03:21:46.770Z,75.28
2022-10-04T03:24:51.806Z,75.04
2022-10-04T03:27:54.231Z,76.05
2022-10-04T03:30:57.256Z,75.47
2022-10-04T03:33:59.340Z,75.26
2022-10-04T03:37:01.548Z,75.94
2022-10-04T03:40:04.581Z,74.57
2022-10-04T03:43:06.947Z,75.39
2022-10-04T03:46:09.029Z,75.04
2022-10-04T03:49:18.181Z,74.81
2022-10-04T03:52:30.277Z,75.76
2022-10-04T03:55:40.472Z,73.99
2022-10-04T03:58:42.517Z,75.99
2022-10-04T04:02:11.272Z,75.28
2022-10-04T04:05:32.019Z,75.53
2022-10-04T04:08:38.496Z,74.13
2022-10-04T04:11:40.727Z,74.29
2022-10-04T04:14:42.960Z,74.84
2022-10-04T04:17:47.374Z,74.24
2022-10-04T04:20:51.730Z,73.24
2022-10-04T04:24:03.656Z,72.78
2022-10-04T04:27:05.765Z,71.52
2022-10-04T04:30:08.411Z,72.08
2022-10-04T04:33:21.096Z,71.84
2022-10-04T04:36:23.342Z,72.81
2022-10-04T04:39:34.367Z,72.58
2022-10-04T04:42:36.564Z,72.39
2022-10-04T04:45:39.086Z,72.38
2022-10-04T04:48:45.127Z,71.97
2022-10-04T04:51:51.507Z,72.51
2022-10-04T04:54:54.370Z,72.63
2022-10-04T04:57:57.332Z,73.33
2022-10-04T05:01:15.984Z,73.26
2022-10-04T05:04:23.019Z,73.00
2022-10-04T05:07:25.107Z,72.10
2022-10-04T05:10:33.705Z,72.81
2022-10-04T05:13:47.698Z,73.65
2022-10-04T05:16:55.778Z,73.90
2022-10-04T05:19:59.323Z,73.14
2022-10-04T05:23:01.438Z,73.02
2022-10-04T05:26:04.628Z,73.32
2022-10-04T05:29:18.270Z,73.09
2022-10-04T05:32:41.301Z,72.52
2022-10-04T05:36:09.691Z,73.28
2022-10-04T05:39:16.962Z,72.17
2022-10-04T05:42:45.267Z,73.47
2022-10-04T05:45:47.559Z,72.60
2022-10-04T05:49:00.549Z,73.54
2022-10-04T05:52:05.766Z,72.27
2022-10-04T05:55:23.901Z,72.80
2022-10-04T05:58:51.882Z,71.88
2022-10-04T06:02:18.260Z,72.05
2022-10-04T06:05:58.230Z,72.19
2022-10-04T06:09:15.282Z,71.44
2022-10-04T06:12:31.737Z,72.01
2022-10-04T06:16:03.187Z,71.06
2022-10-04T06:19:29.883Z,70.19
2022-10-04T06:22:33.215Z,70.99
2022-10-04T06:26:12.531Z,71.55
2022-10-04T06:29:21.003Z,71.80
2022-10-04T06:32:45.946Z,71.98
2022-10-04T06:36:35.193Z,72.07
2022-10-04T06:39:39.658Z,72.62
2022-10-04T06:43:17.935Z,72.31
2022-10-04T06:46:45.122Z,71.83
2022-10-04T06:50:28.569Z,72.17
2022-10-04T06:53:54.907Z,72.32
2022-10-04T06:57:23.942Z,71.92
2022-10-04T07:00:29.775Z,71.96
2022-10-04T07:04:02.512Z,71.57
2022-10-04T07:07:25.101Z,69.76
2022-10-04T07:10:49.635Z,70.40
2022-10-04T07:14:06.463Z,70.31
2022-10-04T07:17:19.915Z,69.12
2022-10-04T07:20:27.244Z,70.30
2022-10-04T07:23:45.154Z,70.15
2022-10-04T07:26:49.146Z,68.15
2022-10-04T07:29:59.351Z,68.75
2022-10-04T07:33:01.423Z,68.66
2022-10-04T07:36:10.289Z,70.17
2022-10-04T07:39:42.218Z,69.89
2022-10-04T07:42:50.812Z,70.60
2022-10-04T07:45:52.993Z,70.12
2022-10-04T07:49:02.139Z,71.99
2022-10-04T07:52:36.424Z,72.03
2022-10-04T07:56:10.667Z,72.48
2022-10-04T08:00:00.003Z,73.21
2022-10-04T08:03:26.639Z,73.61
2022-10-04T08:07:00.533Z,74.04
2022-10-04T08:10:41.311Z,73.88
2022-10-04T08:14:09.845Z,74.24
2022-10-04T08:17:15.799Z,74.60
2022-10-04T08:20:34.523Z,74.52
2022-10-04T08:23:51.886Z,74.50
2022-10-04T08:27:35.421Z,74.66
2022-10-04T08:31:21.487Z,74.47
2022-10-04T08:34:53.830Z,74.46
2022-10-04T08:38:33.277Z,75.04
2022-10-04T08:41:50.026Z,74.62
2022-10-04T08:45:28.922Z,74.04
2022-10-04T08:48:49.183Z,74.20
2022-10-04T08:52:09.719Z,73.61
2022-10-04T08:55:41.863Z,74.01
2022-10-04T08:59:17.610Z,74.37
2022-10-04T09:02:40.097Z,73.59
2022-10-04T09:06:16.646Z,74.21
2022-10-04T09:09:37.104Z,74.22
2022-10-04T09:13:19.115Z,73.70
2022-10-04T09:16:49.383Z,73.48
2022-10-04T09:20:13.919Z,73.92
2022-10-04T09:23:31.703Z,73.65
2022-10-04T09:27:01.699Z,74.07
2022-10-04T09:30:15.332Z,74.18
2022-10-04T09:33:46.313Z,74.25
2022-10-04T09:37:12.848Z,75.16
2022-10-04T09:40:34.696Z,74.35
2022-10-04T09:44:30.215Z,73.92
2022-10-04T09:47:45.886Z,74.30
2022-10-04T09:51:08.260Z,74.56
2022-10-04T09:54:50.658Z,74.41
2022-10-04T09:58:29.439Z,74.87
2022-10-04T10:01:37.572Z,75.05
2022-10-04T10:04:50.936Z,75.28
2022-10-04T10:08:30.794Z,75.67
2022-10-04T10:12:15.975Z,75.62
2022-10-04T10:15:59.533Z,78.86
2022-10-04T10:20:09.085Z,79.03
2022-10-04T10:23:51.701Z,81.13
2022-10-04T10:27:20.270Z,79.87
2022-10-04T10:30:48.795Z,81.68
2022-10-04T10:34:34.468Z,81.50
2022-10-04T10:38:06.534Z,80.77
2022-10-04T10:41:45.527Z,79.54
2022-10-04T10:45:28.483Z,79.12
2022-10-04T10:49:13.509Z,79.64
2022-10-04T10:52:46.128Z,78.48
2022-10-04T10:56:19.226Z,79.30
2022-10-04T10:59:42.901Z,78.61
2022-10-04T11:03:21.793Z,77.81
2022-10-04T11:07:16.385Z,78.04
2022-10-04T11:10:18.336Z,78.42
2022-10-04T11:13:36.903Z,76.27
2022-10-04T11:17:06.423Z,77.10
2022-10-04T11:20:37.778Z,75.95
2022-10-04T11:24:07.450Z,76.78
2022-10-04T11:27:49.573Z,75.91
2022-10-04T11:31:26.815Z,75.78
2022-10-04T11:35:15.427Z,75.60
2022-10-04T11:38:48.814Z,74.97
2022-10-04T11:42:30.918Z,73.42
2022-10-04T11:45:38.221Z,74.08
2022-10-04T11:49:14.131Z,73.55
2022-10-04T11:52:38.161Z,74.15
2022-10-04T11:55:43.164Z,75.87
2022-10-04T11:59:22.456Z,74.91
2022-10-04T12:03:02.838Z,75.43
2022-10-04T12:07:02.871Z,75.29
2022-10-04T12:10:35.565Z,74.23
2022-10-04T12:14:02.356Z,74.52
2022-10-04T12:17:19.833Z,75.76
2022-10-04T12:20:58.163Z,76.30
2022-10-04T12:24:04.670Z,74.12
2022-10-04T12:27:39.155Z,74.62
2022-10-04T12:31:08.670Z,74.92
2022-10-04T12:34:19.583Z,75.50
2022-10-04T12:37:34.404Z,74.91
2022-10-04T12:40:51.452Z,73.42
2022-10-04T12:44:24.232Z,71.27
2022-10-04T12:47:59.496Z,68.03
2022-10-04T12:51:52.159Z,67.54
2022-10-04T12:55:35.230Z,69.55
2022-10-04T12:59:24.174Z,70.62
2022-10-04T13:03:02.787Z,70.27
2022-10-04T13:06:25.515Z,67.82
2022-10-04T13:10:12.134Z,69.19
2022-10-04T13:13:48.315Z,69.57
2022-10-04T13:17:34.640Z,71.20
2022-10-04T13:21:04.198Z,72.50
2022-10-04T13:24:56.501Z,73.38
2022-10-04T13:28:05.691Z,73.43
2022-10-04T13:31:45.971Z,74.53
2022-10-04T13:35:14.550Z,74.71
2022-10-04T13:38:43.687Z,74.46
2022-10-04T13:42:30.247Z,75.25
2022-10-04T13:46:06.216Z,75.49
2022-10-04T13:50:03.159Z,75.84
2022-10-04T13:53:26.288Z,75.45
2022-10-04T13:57:14.573Z,75.28
2022-10-04T14:01:26.544Z,74.87
2022-10-04T14:04:42.772Z,75.05
2022-10-04T14:08:21.448Z,75.72
2022-10-04T14:11:41.758Z,74.87
2022-10-04T14:15:12.123Z,74.73
2022-10-04T14:18:36.130Z,77.19
2022-10-04T14:22:24.015Z,76.72
2022-10-04T14:25:35.113Z,76.28
2022-10-04T14:28:42.695Z,76.94
2022-10-04T14:32:20.352Z,75.82
2022-10-04T14:35:53.345Z,76.33
2022-10-04T14:39:35.615Z,75.79
2022-10-04T14:42:52.739Z,74.89
2022-10-04T14:46:32.013Z,75.47
2022-10-04T14:50:00.256Z,74.85
2022-10-04T14:53:23.727Z,74.65
2022-10-04T14:56:59.289Z,74.17
2022-10-04T15:00:10.820Z,74.62
2022-10-04T15:03:55.327Z,74.94
2022-10-04T15:07:54.072Z,74.92
2022-10-04T15:11:11.646Z,74.64
2022-10-04T15:14:39.568Z,74.38
2022-10-04T15:17:55.382Z,74.79
2022-10-04T15:21:48.503Z,75.20
2022-10-04T15:24:51.490Z,75.42
2022-10-04T15:27:54.532Z,76.40
2022-10-04T15:31:23.375Z,77.41
2022-10-04T15:35:03.639Z,78.39
2022-10-04T15:38:39.348Z,78.03
2022-10-04T15:42:21.169Z,78.28
2022-10-04T15:46:03.515Z,79.02
2022-10-04T15:49:25.821Z,79.24
2022-10-04T15:53:24.355Z,79.15
2022-10-04T15:56:35.979Z,79.47
2022-10-04T15:59:55.617Z,79.66
2022-10-04T16:03:10.764Z,79.56
2022-10-04T16:06:29.054Z,80.52
2022-10-04T16:10:01.086Z,79.69
2022-10-04T16:13:57.239Z,79.28
2022-10-04T16:17:25.545Z,79.69
2022-10-04T16:20:34.234Z,79.63
2022-10-04T16:23:37.055Z,79.33
2022-10-04T16:26:42.047Z,79.48
2022-10-04T16:30:32.696Z,80.06
2022-10-04T16:33:43.185Z,79.46
2022-10-04T16:37:13.936Z,80.16
2022-10-04T16:40:31.415Z,80.23
2022-10-04T16:43:33.505Z,80.59
2022-10-04T16:46:46.232Z,80.90
2022-10-04T16:49:54.940Z,81.36
2022-10-04T16:53:23.655Z,81.56
2022-10-04T16:56:28.129Z,82.20
2022-10-04T16:59:39.420Z,81.43
2022-10-04T17:03:00.456Z,82.64
2022-10-04T17:06:13.681Z,83.31
2022-10-04T17:09:32.635Z,82.48
2022-10-04T17:12:48.924Z,82.82
2022-10-04T17:16:13.927Z,83.39
2022-10-04T17:19:35.973Z,83.73
2022-10-04T17:23:03.167Z,83.78
2022-10-04T17:26:35.492Z,85.83
2022-10-04T17:29:58.549Z,85.01
2022-10-04T17:33:22.808Z,83.99
2022-10-04T17:36:45.170Z,84.48
2022-10-04T17:40:13.159Z,84.50
2022-10-04T17:44:15.021Z,85.15
2022-10-04T17:47:27.520Z,85.65
2022-10-04T17:51:05.118Z,84.65
2022-10-04T17:54:40.872Z,83.88
2022-10-04T17:57:55.777Z,82.95
2022-10-04T18:01:30.282Z,82.35
2022-10-04T18:04:34.819Z,81.06
2022-10-04T18:07:44.409Z,80.84
2022-10-04T18:10:50.575Z,80.82
2022-10-04T18:14:31.011Z,80.01
2022-10-04T18:17:49.763Z,80.21
2022-10-04T18:20:54.802Z,79.70
2022-10-04T18:24:16.363Z,80.07
2022-10-04T18:27:23.434Z,80.41
2022-10-04T18:30:26.247Z,80.22
2022-10-04T18:33:49.945Z,78.87
2022-10-04T18:37:05.846Z,80.45
2022-10-04T18:40:35.275Z,81.46
2022-10-04T18:44:00.591Z,80.85
2022-10-04T18:47:12.452Z,80.29
2022-10-04T18:50:24.348Z,80.20
2022-10-04T18:54:06.701Z,79.99
2022-10-04T18:57:27.230Z,79.84
2022-10-04T19:01:13.868Z,81.34
2022-10-04T19:05:06.931Z,81.14
2022-10-04T19:08:39.014Z,81.84
2022-10-04T19:11:54.464Z,82.06
2022-10-04T19:15:22.500Z,81.21
2022-10-04T19:18:42.634Z,82.92
2022-10-04T19:21:54.887Z,81.89
2022-10-04T19:25:35.403Z,82.09
2022-10-04T19:28:37.871Z,82.23
2022-10-04T19:31:54.976Z,82.89
2022-10-04T19:35:19.082Z,82.71
2022-10-04T19:39:02.738Z,83.12
2022-10-04T19:42:16.450Z,82.50
2022-10-04T19:45:33.425Z,83.93
2022-10-04T19:48:49.907Z,83.97
2022-10-04T19:51:56.338Z,84.19
2022-10-04T19:55:26.362Z,84.17
2022-10-04T19:59:09.192Z,83.89
2022-10-04T20:02:12.029Z,83.34
2022-10-04T20:05:24.624Z,83.68
2022-10-04T20:09:02.570Z,84.30
2022-10-04T20:12:05.554Z,84.92
2022-10-04T20:15:35.204Z,86.42
2022-10-04T20:18:41.159Z,83.64
2022-10-04T20:21:43.358Z,84.29
2022-10-04T20:24:45.311Z,85.08
2022-10-04T20:27:47.257Z,86.30
2022-10-04T20:30:57.733Z,85.10
2022-10-04T20:34:35.640Z,86.03
2022-10-04T20:38:13.549Z,84.51
2022-10-04T20:41:51.287Z,84.87
2022-10-04T20:44:56.865Z,85.01
2022-10-04T20:47:59.177Z,86.22
2022-10-04T20:51:09.717Z,85.80
2022-10-04T20:54:17.753Z,86.95
2022-10-04T20:57:23.989Z,85.78
2022-10-04T21:00:27.234Z,85.55
2022-10-04T21:03:30.525Z,84.47
2022-10-04T21:06:32.552Z,84.25
2022-10-04T21:09:36.456Z,83.80
2022-10-04T21:12:38.957Z,83.99
2022-10-04T21:15:55.496Z,83.54
2022-10-04T21:19:32.673Z,83.68
2022-10-04T21:22:35.058Z,83.91
2022-10-04T21:25:37.106Z,84.67
2022-10-04T21:28:39.271Z,84.59
2022-10-04T21:31:41.452Z,84.46
2022-10-04T21:34:58.837Z,84.15
2022-10-04T21:38:00.905Z,84.69
2022-10-04T21:41:03.250Z,85.60
2022-10-04T21:44:05.285Z,85.99
2022-10-04T21:47:07.370Z,85.75
2022-10-04T21:50:09.780Z,85.11
2022-10-04T21:53:11.946Z,85.18
2022-10-04T21:56:14.050Z,84.68
2022-10-04T21:59:16.162Z,84.82
2022-10-04T22:02:18.278Z,85.72
2022-10-04T22:05:20.422Z,86.26
2022-10-04T22:08:22.511Z,86.12
2022-10-04T22:11:24.603Z,85.08
2022-10-04T22:14:26.648Z,85.25
2022-10-04T22:17:28.738Z,86.69
2022-10-04T22:20:30.954Z,87.41
2022-10-04T22:23:41.716Z,86.95
2022-10-04T22:26:44.201Z,86.35
2022-10-04T22:29:46.545Z,87.30
2022-10-04T22:32:49.073Z,87.18
2022-10-04T22:35:51.143Z,87.25
2022-10-04T22:38:58.642Z,87.03
2022-10-04T22:42:00.954Z,86.73
2022-10-04T22:45:03.137Z,86.62
2022-10-04T22:48:11.560Z,87.00
2022-10-04T22:51:13.754Z,86.11
2022-10-04T22:54:21.409Z,85.91
2022-10-04T22:57:24.173Z,87.60
2022-10-04T23:00:26.311Z,88.22
2022-10-04T23:03:32.588Z,88.94
2022-10-04T23:06:34.660Z,88.20
2022-10-04T23:09:36.695Z,87.81
2022-10-04T23:12:39.754Z,88.64
2022-10-04T23:15:42.016Z,88.20
2022-10-04T23:18:44.200Z,87.94
2022-10-04T23:21:49.771Z,88.33
2022-10-04T23:24:52.107Z,88.34
2022-10-04T23:27:58.553Z,87.29
2022-10-04T23:31:15.683Z,87.60
2022-10-04T23:34:23.725Z,86.92
2022-10-04T23:37:27.540Z,86.02
2022-10-04T23:40:29.627Z,86.94
2022-10-04T23:43:34.097Z,87.57
2022-10-04T23:46:36.199Z,88.61
2022-10-04T23:49:38.292Z,88.47
2022-10-04T23:52:40.329Z,87.88
2022-10-04T23:55:42.831Z,89.55
2022-10-04T23:58:45.029Z,88.55
